sensor_id;sensor_type;location;lat;lon;timestamp;pressure;altitude;pressure_sealevel;temperature
15079;BMP180;6932;51.438;5.470;2022-12-10T00:01:22;100420.00;;;6.50
15079;BMP180;6932;51.438;5.470;2022-12-10T00:03:49;100405.00;;;6.50
15079;BMP180;6932;51.438;5.470;2022-12-10T00:06:21;100433.00;;;6.50
15079;BMP180;6932;51.438;5.470;2022-12-10T00:08:48;100430.00;;;6.50
15079;BMP180;6932;51.438;5.470;2022-12-10T00:11:16;100425.00;;;6.50
15079;BMP180;6932;51.438;5.470;2022-12-10T00:13:44;100431.00;;;6.50
15079;BMP180;6932;51.438;5.470;2022-12-10T00:16:13;100437.00;;;6.50
15079;BMP180;6932;51.438;5.470;2022-12-10T00:18:39;100432.00;;;6.50
15079;BMP180;6932;51.438;5.470;2022-12-10T00:21:09;100432.00;;;6.50
15079;BMP180;6932;51.438;5.470;2022-12-10T00:23:36;100433.00;;;6.50
15079;BMP180;6932;51.438;5.470;2022-12-10T00:26:30;100440.00;;;6.50
15079;BMP180;6932;51.438;5.470;2022-12-10T00:28:57;100431.00;;;6.50
15079;BMP180;6932;51.438;5.470;2022-12-10T00:31:31;100438.00;;;6.50
15079;BMP180;6932;51.438;5.470;2022-12-10T00:34:00;100439.00;;;6.50
15079;BMP180;6932;51.438;5.470;2022-12-10T00:36:37;100445.00;;;6.50
15079;BMP180;6932;51.438;5.470;2022-12-10T00:39:04;100449.00;;;6.50
15079;BMP180;6932;51.438;5.470;2022-12-10T00:41:30;100445.00;;;6.50
15079;BMP180;6932;51.438;5.470;2022-12-10T00:43:57;100435.00;;;6.50
15079;BMP180;6932;51.438;5.470;2022-12-10T00:46:23;100430.00;;;6.50
15079;BMP180;6932;51.438;5.470;2022-12-10T00:48:49;100429.00;;;6.50
15079;BMP180;6932;51.438;5.470;2022-12-10T00:51:18;100422.00;;;6.50
15079;BMP180;6932;51.438;5.470;2022-12-10T00:53:47;100431.00;;;6.50
15079;BMP180;6932;51.438;5.470;2022-12-10T00:56:16;100431.00;;;6.50
15079;BMP180;6932;51.438;5.470;2022-12-10T00:58:44;100426.00;;;6.50
15079;BMP180;6932;51.438;5.470;2022-12-10T01:03:44;100427.00;;;6.40
15079;BMP180;6932;51.438;5.470;2022-12-10T01:06:14;100423.00;;;6.50
15079;BMP180;6932;51.438;5.470;2022-12-10T01:08:42;100424.00;;;6.40
15079;BMP180;6932;51.438;5.470;2022-12-10T01:11:10;100414.00;;;6.40
15079;BMP180;6932;51.438;5.470;2022-12-10T01:13:37;100419.00;;;6.40
15079;BMP180;6932;51.438;5.470;2022-12-10T01:16:05;100424.00;;;6.40
15079;BMP180;6932;51.438;5.470;2022-12-10T01:18:31;100414.00;;;6.40
15079;BMP180;6932;51.438;5.470;2022-12-10T01:21:08;100428.00;;;6.40
15079;BMP180;6932;51.438;5.470;2022-12-10T01:23:40;100430.00;;;6.40
15079;BMP180;6932;51.438;5.470;2022-12-10T01:26:10;100426.00;;;6.30
15079;BMP180;6932;51.438;5.470;2022-12-10T01:28:38;100422.00;;;6.30
15079;BMP180;6932;51.438;5.470;2022-12-10T01:33:40;100439.00;;;6.30
15079;BMP180;6932;51.438;5.470;2022-12-10T01:36:13;100446.00;;;6.30
15079;BMP180;6932;51.438;5.470;2022-12-10T01:38:39;100453.00;;;6.30
15079;BMP180;6932;51.438;5.470;2022-12-10T01:41:07;100445.00;;;6.20
15079;BMP180;6932;51.438;5.470;2022-12-10T01:43:52;100453.00;;;6.20
15079;BMP180;6932;51.438;5.470;2022-12-10T01:46:19;100453.00;;;6.20
15079;BMP180;6932;51.438;5.470;2022-12-10T01:48:46;100454.00;;;6.20
15079;BMP180;6932;51.438;5.470;2022-12-10T01:51:13;100471.00;;;6.20
15079;BMP180;6932;51.438;5.470;2022-12-10T01:53:40;100464.00;;;6.20
15079;BMP180;6932;51.438;5.470;2022-12-10T01:56:09;100463.00;;;6.20
15079;BMP180;6932;51.438;5.470;2022-12-10T01:58:35;100464.00;;;6.20
15079;BMP180;6932;51.438;5.470;2022-12-10T02:01:10;100474.00;;;6.20
15079;BMP180;6932;51.438;5.470;2022-12-10T02:06:48;100458.00;;;6.20
15079;BMP180;6932;51.438;5.470;2022-12-10T02:09:27;100455.00;;;6.10
15079;BMP180;6932;51.438;5.470;2022-12-10T02:12:15;100467.00;;;6.10
15079;BMP180;6932;51.438;5.470;2022-12-10T02:17:25;100475.00;;;6.10
15079;BMP180;6932;51.438;5.470;2022-12-10T02:22:38;100458.00;;;6.10
15079;BMP180;6932;51.438;5.470;2022-12-10T02:25:08;100453.00;;;6.10
15079;BMP180;6932;51.438;5.470;2022-12-10T02:28:01;100461.00;;;6.10
15079;BMP180;6932;51.438;5.470;2022-12-10T02:30:32;100461.00;;;6.10
15079;BMP180;6932;51.438;5.470;2022-12-10T02:33:02;100457.00;;;6.10
15079;BMP180;6932;51.438;5.470;2022-12-10T02:35:33;100447.00;;;6.10
15079;BMP180;6932;51.438;5.470;2022-12-10T02:38:17;100445.00;;;6.10
15079;BMP180;6932;51.438;5.470;2022-12-10T02:40:53;100449.00;;;6.10
15079;BMP180;6932;51.438;5.470;2022-12-10T02:43:22;100433.00;;;6.10
15079;BMP180;6932;51.438;5.470;2022-12-10T02:45:50;100437.00;;;6.10
15079;BMP180;6932;51.438;5.470;2022-12-10T02:48:18;100448.00;;;6.20
15079;BMP180;6932;51.438;5.470;2022-12-10T02:50:44;100445.00;;;6.20
15079;BMP180;6932;51.438;5.470;2022-12-10T02:53:10;100433.00;;;6.20
15079;BMP180;6932;51.438;5.470;2022-12-10T02:56:13;100444.00;;;6.20
15079;BMP180;6932;51.438;5.470;2022-12-10T03:01:33;100451.00;;;6.20
15079;BMP180;6932;51.438;5.470;2022-12-10T03:04:21;100452.00;;;6.20
15079;BMP180;6932;51.438;5.470;2022-12-10T03:06:59;100447.00;;;6.20
15079;BMP180;6932;51.438;5.470;2022-12-10T03:09:56;100450.00;;;6.10
15079;BMP180;6932;51.438;5.470;2022-12-10T03:12:36;100458.00;;;6.10
15079;BMP180;6932;51.438;5.470;2022-12-10T03:15:08;100464.00;;;6.10
15079;BMP180;6932;51.438;5.470;2022-12-10T03:17:37;100463.00;;;6.10
15079;BMP180;6932;51.438;5.470;2022-12-10T03:20:08;100445.00;;;6.10
15079;BMP180;6932;51.438;5.470;2022-12-10T03:22:38;100455.00;;;6.10
15079;BMP180;6932;51.438;5.470;2022-12-10T03:25:10;100462.00;;;6.20
15079;BMP180;6932;51.438;5.470;2022-12-10T03:27:40;100451.00;;;6.20
15079;BMP180;6932;51.438;5.470;2022-12-10T03:30:08;100463.00;;;6.20
15079;BMP180;6932;51.438;5.470;2022-12-10T03:32:34;100465.00;;;6.20
15079;BMP180;6932;51.438;5.470;2022-12-10T03:35:02;100464.00;;;6.20
15079;BMP180;6932;51.438;5.470;2022-12-10T03:37:29;100466.00;;;6.20
15079;BMP180;6932;51.438;5.470;2022-12-10T03:39:57;100462.00;;;6.20
15079;BMP180;6932;51.438;5.470;2022-12-10T03:42:23;100457.00;;;6.20
15079;BMP180;6932;51.438;5.470;2022-12-10T03:44:51;100459.00;;;6.20
15079;BMP180;6932;51.438;5.470;2022-12-10T03:47:18;100461.00;;;6.30
15079;BMP180;6932;51.438;5.470;2022-12-10T03:49:45;100462.00;;;6.30
15079;BMP180;6932;51.438;5.470;2022-12-10T03:52:11;100462.00;;;6.30
15079;BMP180;6932;51.438;5.470;2022-12-10T03:54:37;100458.00;;;6.30
15079;BMP180;6932;51.438;5.470;2022-12-10T03:57:03;100468.00;;;6.30
15079;BMP180;6932;51.438;5.470;2022-12-10T03:59:29;100460.00;;;6.30
15079;BMP180;6932;51.438;5.470;2022-12-10T04:01:55;100466.00;;;6.30
15079;BMP180;6932;51.438;5.470;2022-12-10T04:04:21;100463.00;;;6.30
15079;BMP180;6932;51.438;5.470;2022-12-10T04:06:47;100467.00;;;6.30
15079;BMP180;6932;51.438;5.470;2022-12-10T04:09:15;100462.00;;;6.30
15079;BMP180;6932;51.438;5.470;2022-12-10T04:11:42;100464.00;;;6.30
15079;BMP180;6932;51.438;5.470;2022-12-10T04:14:10;100465.00;;;6.30
15079;BMP180;6932;51.438;5.470;2022-12-10T04:16:54;100468.00;;;6.30
15079;BMP180;6932;51.438;5.470;2022-12-10T04:19:20;100475.00;;;6.30
15079;BMP180;6932;51.438;5.470;2022-12-10T04:21:47;100461.00;;;6.20
15079;BMP180;6932;51.438;5.470;2022-12-10T04:24:34;100467.00;;;6.20
15079;BMP180;6932;51.438;5.470;2022-12-10T04:27:25;100474.00;;;6.20
15079;BMP180;6932;51.438;5.470;2022-12-10T04:29:52;100472.00;;;6.20
15079;BMP180;6932;51.438;5.470;2022-12-10T04:32:18;100474.00;;;6.20
15079;BMP180;6932;51.438;5.470;2022-12-10T04:34:44;100477.00;;;6.30
15079;BMP180;6932;51.438;5.470;2022-12-10T04:37:11;100483.00;;;6.30
15079;BMP180;6932;51.438;5.470;2022-12-10T04:39:38;100470.00;;;6.30
15079;BMP180;6932;51.438;5.470;2022-12-10T04:42:05;100482.00;;;6.30
15079;BMP180;6932;51.438;5.470;2022-12-10T04:44:31;100480.00;;;6.30
15079;BMP180;6932;51.438;5.470;2022-12-10T04:46:57;100485.00;;;6.30
15079;BMP180;6932;51.438;5.470;2022-12-10T04:49:23;100492.00;;;6.20
15079;BMP180;6932;51.438;5.470;2022-12-10T04:51:50;100494.00;;;6.30
15079;BMP180;6932;51.438;5.470;2022-12-10T04:54:16;100486.00;;;6.20
15079;BMP180;6932;51.438;5.470;2022-12-10T04:56:43;100488.00;;;6.20
15079;BMP180;6932;51.438;5.470;2022-12-10T04:59:09;100484.00;;;6.20
15079;BMP180;6932;51.438;5.470;2022-12-10T05:01:36;100493.00;;;6.20
15079;BMP180;6932;51.438;5.470;2022-12-10T05:04:06;100484.00;;;6.20
15079;BMP180;6932;51.438;5.470;2022-12-10T05:06:32;100483.00;;;6.20
15079;BMP180;6932;51.438;5.470;2022-12-10T05:08:59;100484.00;;;6.20
15079;BMP180;6932;51.438;5.470;2022-12-10T05:11:29;100486.00;;;6.20
15079;BMP180;6932;51.438;5.470;2022-12-10T05:13:56;100486.00;;;6.20
15079;BMP180;6932;51.438;5.470;2022-12-10T05:16:24;100484.00;;;6.20
15079;BMP180;6932;51.438;5.470;2022-12-10T05:18:52;100484.00;;;6.20
15079;BMP180;6932;51.438;5.470;2022-12-10T05:21:20;100482.00;;;6.20
15079;BMP180;6932;51.438;5.470;2022-12-10T05:23:49;100485.00;;;6.20
15079;BMP180;6932;51.438;5.470;2022-12-10T05:26:21;100485.00;;;6.20
15079;BMP180;6932;51.438;5.470;2022-12-10T05:28:54;100483.00;;;6.20
15079;BMP180;6932;51.438;5.470;2022-12-10T05:31:26;100497.00;;;6.10
15079;BMP180;6932;51.438;5.470;2022-12-10T05:33:54;100502.00;;;6.10
15079;BMP180;6932;51.438;5.470;2022-12-10T05:36:24;100489.00;;;6.10
15079;BMP180;6932;51.438;5.470;2022-12-10T05:38:51;100495.00;;;6.10
15079;BMP180;6932;51.438;5.470;2022-12-10T05:41:21;100483.00;;;6.10
15079;BMP180;6932;51.438;5.470;2022-12-10T05:43:48;100488.00;;;6.10
15079;BMP180;6932;51.438;5.470;2022-12-10T05:46:23;100492.00;;;6.10
15079;BMP180;6932;51.438;5.470;2022-12-10T05:48:50;100496.00;;;6.10
15079;BMP180;6932;51.438;5.470;2022-12-10T05:51:24;100489.00;;;6.10
15079;BMP180;6932;51.438;5.470;2022-12-10T05:53:52;100496.00;;;6.20
15079;BMP180;6932;51.438;5.470;2022-12-10T05:56:21;100490.00;;;6.10
15079;BMP180;6932;51.438;5.470;2022-12-10T05:58:50;100493.00;;;6.10
15079;BMP180;6932;51.438;5.470;2022-12-10T06:01:23;100492.00;;;6.10
15079;BMP180;6932;51.438;5.470;2022-12-10T06:03:50;100499.00;;;6.10
15079;BMP180;6932;51.438;5.470;2022-12-10T06:06:23;100500.00;;;6.10
15079;BMP180;6932;51.438;5.470;2022-12-10T06:08:50;100501.00;;;6.10
15079;BMP180;6932;51.438;5.470;2022-12-10T06:11:17;100503.00;;;6.10
15079;BMP180;6932;51.438;5.470;2022-12-10T06:13:43;100496.00;;;6.10
15079;BMP180;6932;51.438;5.470;2022-12-10T06:16:11;100503.00;;;6.10
15079;BMP180;6932;51.438;5.470;2022-12-10T06:18:38;100505.00;;;6.10
15079;BMP180;6932;51.438;5.470;2022-12-10T06:21:13;100500.00;;;6.10
15079;BMP180;6932;51.438;5.470;2022-12-10T06:23:41;100499.00;;;6.10
15079;BMP180;6932;51.438;5.470;2022-12-10T06:26:14;100494.00;;;6.10
15079;BMP180;6932;51.438;5.470;2022-12-10T06:28:41;100505.00;;;6.10
15079;BMP180;6932;51.438;5.470;2022-12-10T06:31:07;100504.00;;;6.10
15079;BMP180;6932;51.438;5.470;2022-12-10T06:33:33;100502.00;;;6.10
15079;BMP180;6932;51.438;5.470;2022-12-10T06:35:59;100507.00;;;6.10
15079;BMP180;6932;51.438;5.470;2022-12-10T06:38:27;100506.00;;;6.10
15079;BMP180;6932;51.438;5.470;2022-12-10T06:40:53;100509.00;;;6.10
15079;BMP180;6932;51.438;5.470;2022-12-10T06:43:19;100508.00;;;6.10
15079;BMP180;6932;51.438;5.470;2022-12-10T06:45:45;100513.00;;;6.10
15079;BMP180;6932;51.438;5.470;2022-12-10T06:48:10;100518.00;;;6.10
15079;BMP180;6932;51.438;5.470;2022-12-10T06:50:37;100524.00;;;6.10
15079;BMP180;6932;51.438;5.470;2022-12-10T06:53:03;100517.00;;;6.10
15079;BMP180;6932;51.438;5.470;2022-12-10T06:55:29;100520.00;;;6.10
15079;BMP180;6932;51.438;5.470;2022-12-10T06:57:55;100525.00;;;6.10
15079;BMP180;6932;51.438;5.470;2022-12-10T07:00:21;100520.00;;;6.10
15079;BMP180;6932;51.438;5.470;2022-12-10T07:02:48;100532.00;;;6.10
15079;BMP180;6932;51.438;5.470;2022-12-10T07:05:14;100532.00;;;6.00
15079;BMP180;6932;51.438;5.470;2022-12-10T07:07:40;100529.00;;;6.00
15079;BMP180;6932;51.438;5.470;2022-12-10T07:10:06;100534.00;;;6.00
15079;BMP180;6932;51.438;5.470;2022-12-10T07:12:32;100537.00;;;6.10
15079;BMP180;6932;51.438;5.470;2022-12-10T07:14:58;100540.00;;;6.10
15079;BMP180;6932;51.438;5.470;2022-12-10T07:17:24;100538.00;;;6.00
15079;BMP180;6932;51.438;5.470;2022-12-10T07:19:49;100551.00;;;6.00
15079;BMP180;6932;51.438;5.470;2022-12-10T07:22:15;100549.00;;;6.00
15079;BMP180;6932;51.438;5.470;2022-12-10T07:24:41;100556.00;;;6.00
15079;BMP180;6932;51.438;5.470;2022-12-10T07:27:09;100543.00;;;6.00
15079;BMP180;6932;51.438;5.470;2022-12-10T07:29:35;100557.00;;;6.00
15079;BMP180;6932;51.438;5.470;2022-12-10T07:32:01;100558.00;;;6.00
15079;BMP180;6932;51.438;5.470;2022-12-10T07:34:27;100553.00;;;6.00
15079;BMP180;6932;51.438;5.470;2022-12-10T07:36:52;100559.00;;;6.00
15079;BMP180;6932;51.438;5.470;2022-12-10T07:39:18;100563.00;;;6.00
15079;BMP180;6932;51.438;5.470;2022-12-10T07:41:49;100551.00;;;5.90
15079;BMP180;6932;51.438;5.470;2022-12-10T07:44:25;100563.00;;;5.90
15079;BMP180;6932;51.438;5.470;2022-12-10T07:46:53;100562.00;;;5.90
15079;BMP180;6932;51.438;5.470;2022-12-10T07:49:19;100564.00;;;5.90
15079;BMP180;6932;51.438;5.470;2022-12-10T07:51:49;100556.00;;;5.90
15079;BMP180;6932;51.438;5.470;2022-12-10T07:54:16;100572.00;;;5.90
15079;BMP180;6932;51.438;5.470;2022-12-10T07:56:42;100563.00;;;5.90
15079;BMP180;6932;51.438;5.470;2022-12-10T07:59:09;100569.00;;;6.00
15079;BMP180;6932;51.438;5.470;2022-12-10T08:01:34;100568.00;;;6.00
15079;BMP180;6932;51.438;5.470;2022-12-10T08:04:00;100570.00;;;6.00
15079;BMP180;6932;51.438;5.470;2022-12-10T08:06:28;100575.00;;;6.00
15079;BMP180;6932;51.438;5.470;2022-12-10T08:08:54;100571.00;;;6.00
15079;BMP180;6932;51.438;5.470;2022-12-10T08:11:22;100580.00;;;6.00
15079;BMP180;6932;51.438;5.470;2022-12-10T08:13:49;100583.00;;;6.00
15079;BMP180;6932;51.438;5.470;2022-12-10T08:16:20;100567.00;;;6.00
15079;BMP180;6932;51.438;5.470;2022-12-10T08:18:48;100592.00;;;6.00
15079;BMP180;6932;51.438;5.470;2022-12-10T08:21:18;100587.00;;;6.00
15079;BMP180;6932;51.438;5.470;2022-12-10T08:23:45;100591.00;;;6.00
15079;BMP180;6932;51.438;5.470;2022-12-10T08:26:15;100592.00;;;6.00
15079;BMP180;6932;51.438;5.470;2022-12-10T08:28:41;100599.00;;;6.00
15079;BMP180;6932;51.438;5.470;2022-12-10T08:31:10;100586.00;;;6.00
15079;BMP180;6932;51.438;5.470;2022-12-10T08:33:38;100604.00;;;6.00
15079;BMP180;6932;51.438;5.470;2022-12-10T08:36:06;100602.00;;;6.00
15079;BMP180;6932;51.438;5.470;2022-12-10T08:38:34;100614.00;;;6.00
15079;BMP180;6932;51.438;5.470;2022-12-10T08:41:07;100614.00;;;6.00
15079;BMP180;6932;51.438;5.470;2022-12-10T08:43:33;100608.00;;;6.00
15079;BMP180;6932;51.438;5.470;2022-12-10T08:45:59;100614.00;;;6.00
15079;BMP180;6932;51.438;5.470;2022-12-10T08:48:25;100616.00;;;6.00
15079;BMP180;6932;51.438;5.470;2022-12-10T08:50:51;100622.00;;;6.00
15079;BMP180;6932;51.438;5.470;2022-12-10T08:53:17;100626.00;;;6.00
15079;BMP180;6932;51.438;5.470;2022-12-10T08:55:42;100617.00;;;6.00
15079;BMP180;6932;51.438;5.470;2022-12-10T08:58:09;100617.00;;;6.00
15079;BMP180;6932;51.438;5.470;2022-12-10T09:00:36;100621.00;;;6.00
15079;BMP180;6932;51.438;5.470;2022-12-10T09:03:02;100621.00;;;6.00
15079;BMP180;6932;51.438;5.470;2022-12-10T09:05:29;100625.00;;;6.00
15079;BMP180;6932;51.438;5.470;2022-12-10T09:07:54;100623.00;;;6.00
15079;BMP180;6932;51.438;5.470;2022-12-10T09:10:20;100631.00;;;6.00
15079;BMP180;6932;51.438;5.470;2022-12-10T09:12:47;100625.00;;;6.10
15079;BMP180;6932;51.438;5.470;2022-12-10T09:15:13;100626.00;;;6.10
15079;BMP180;6932;51.438;5.470;2022-12-10T09:17:39;100624.00;;;6.10
15079;BMP180;6932;51.438;5.470;2022-12-10T09:20:05;100639.00;;;6.10
15079;BMP180;6932;51.438;5.470;2022-12-10T09:22:31;100641.00;;;6.10
15079;BMP180;6932;51.438;5.470;2022-12-10T09:24:57;100641.00;;;6.00
15079;BMP180;6932;51.438;5.470;2022-12-10T09:27:23;100631.00;;;6.00
15079;BMP180;6932;51.438;5.470;2022-12-10T09:29:49;100644.00;;;6.00
15079;BMP180;6932;51.438;5.470;2022-12-10T09:32:14;100628.00;;;6.00
15079;BMP180;6932;51.438;5.470;2022-12-10T09:34:40;100644.00;;;6.10
15079;BMP180;6932;51.438;5.470;2022-12-10T09:37:06;100646.00;;;6.10
15079;BMP180;6932;51.438;5.470;2022-12-10T09:39:32;100639.00;;;6.10
15079;BMP180;6932;51.438;5.470;2022-12-10T09:45:32;100650.00;;;6.10
15079;BMP180;6932;51.438;5.470;2022-12-10T09:48:25;100647.00;;;6.10
15079;BMP180;6932;51.438;5.470;2022-12-10T09:51:01;100649.00;;;6.10
15079;BMP180;6932;51.438;5.470;2022-12-10T09:53:30;100656.00;;;6.10
15079;BMP180;6932;51.438;5.470;2022-12-10T09:55:58;100677.00;;;6.10
15079;BMP180;6932;51.438;5.470;2022-12-10T09:58:26;100664.00;;;6.10
15079;BMP180;6932;51.438;5.470;2022-12-10T10:03:21;100671.00;;;6.10
15079;BMP180;6932;51.438;5.470;2022-12-10T10:05:50;100677.00;;;6.20
15079;BMP180;6932;51.438;5.470;2022-12-10T10:08:40;100674.00;;;6.10
15079;BMP180;6932;51.438;5.470;2022-12-10T10:11:20;100673.00;;;6.10
15079;BMP180;6932;51.438;5.470;2022-12-10T10:14:04;100670.00;;;6.10
15079;BMP180;6932;51.438;5.470;2022-12-10T10:16:48;100667.00;;;6.10
15079;BMP180;6932;51.438;5.470;2022-12-10T10:19:18;100666.00;;;6.10
15079;BMP180;6932;51.438;5.470;2022-12-10T10:21:48;100672.00;;;6.10
15079;BMP180;6932;51.438;5.470;2022-12-10T10:24:26;100677.00;;;6.10
15079;BMP180;6932;51.438;5.470;2022-12-10T10:26:58;100674.00;;;6.10
15079;BMP180;6932;51.438;5.470;2022-12-10T10:29:27;100673.00;;;6.20
15079;BMP180;6932;51.438;5.470;2022-12-10T10:34:42;100674.00;;;6.20
15079;BMP180;6932;51.438;5.470;2022-12-10T10:40:00;100669.00;;;6.20
15079;BMP180;6932;51.438;5.470;2022-12-10T10:42:42;100660.00;;;6.20
15079;BMP180;6932;51.438;5.470;2022-12-10T10:45:40;100668.00;;;6.20
15079;BMP180;6932;51.438;5.470;2022-12-10T10:50:48;100673.00;;;6.20
15079;BMP180;6932;51.438;5.470;2022-12-10T10:53:30;100673.00;;;6.30
15079;BMP180;6932;51.438;5.470;2022-12-10T10:56:27;100665.00;;;6.30
15079;BMP180;6932;51.438;5.470;2022-12-10T10:59:00;100673.00;;;6.30
15079;BMP180;6932;51.438;5.470;2022-12-10T11:01:50;100668.00;;;6.30
15079;BMP180;6932;51.438;5.470;2022-12-10T11:04:28;100674.00;;;6.30
15079;BMP180;6932;51.438;5.470;2022-12-10T11:06:56;100667.00;;;6.30
15079;BMP180;6932;51.438;5.470;2022-12-10T11:09:30;100667.00;;;6.30
15079;BMP180;6932;51.438;5.470;2022-12-10T11:12:10;100652.00;;;6.30
15079;BMP180;6932;51.438;5.470;2022-12-10T11:14:46;100664.00;;;6.30
15079;BMP180;6932;51.438;5.470;2022-12-10T11:22:27;100655.00;;;6.30
15079;BMP180;6932;51.438;5.470;2022-12-10T11:24:53;100649.00;;;6.30
15079;BMP180;6932;51.438;5.470;2022-12-10T11:27:52;100649.00;;;6.30
15079;BMP180;6932;51.438;5.470;2022-12-10T11:30:26;100650.00;;;6.30
15079;BMP180;6932;51.438;5.470;2022-12-10T11:33:34;100650.00;;;6.30
15079;BMP180;6932;51.438;5.470;2022-12-10T11:39:44;100646.00;;;6.30
15079;BMP180;6932;51.438;5.470;2022-12-10T11:51:03;100649.00;;;6.30
15079;BMP180;6932;51.438;5.470;2022-12-10T11:53:57;100653.00;;;6.30
15079;BMP180;6932;51.438;5.470;2022-12-10T11:56:42;100653.00;;;6.30
15079;BMP180;6932;51.438;5.470;2022-12-10T11:59:39;100655.00;;;6.30
15079;BMP180;6932;51.438;5.470;2022-12-10T12:03:31;100659.00;;;6.30
15079;BMP180;6932;51.438;5.470;2022-12-10T12:05:50;100658.00;;;6.30
15079;BMP180;6932;51.438;5.470;2022-12-10T12:08:55;100641.00;;;6.30
15079;BMP180;6932;51.438;5.470;2022-12-10T12:20:00;100654.00;;;6.40
15079;BMP180;6932;51.438;5.470;2022-12-10T12:22:38;100648.00;;;6.40
15079;BMP180;6932;51.438;5.470;2022-12-10T12:25:20;100655.00;;;6.40
15079;BMP180;6932;51.438;5.470;2022-12-10T12:27:54;100655.00;;;6.40
15079;BMP180;6932;51.438;5.470;2022-12-10T12:30:22;100650.00;;;6.40
15079;BMP180;6932;51.438;5.470;2022-12-10T12:33:03;100652.00;;;6.50
15079;BMP180;6932;51.438;5.470;2022-12-10T12:35:47;100659.00;;;6.50
15079;BMP180;6932;51.438;5.470;2022-12-10T12:38:35;100657.00;;;6.50
15079;BMP180;6932;51.438;5.470;2022-12-10T12:44:12;100651.00;;;6.50
15079;BMP180;6932;51.438;5.470;2022-12-10T12:46:45;100647.00;;;6.50
15079;BMP180;6932;51.438;5.470;2022-12-10T12:49:29;100649.00;;;6.50
15079;BMP180;6932;51.438;5.470;2022-12-10T12:53:12;100658.00;;;6.50
15079;BMP180;6932;51.438;5.470;2022-12-10T12:55:29;100648.00;;;6.50
15079;BMP180;6932;51.438;5.470;2022-12-10T12:58:16;100651.00;;;6.50
15079;BMP180;6932;51.438;5.470;2022-12-10T13:00:50;100652.00;;;6.50
15079;BMP180;6932;51.438;5.470;2022-12-10T13:05:46;100655.00;;;6.50
15079;BMP180;6932;51.438;5.470;2022-12-10T13:14:29;100662.00;;;6.50
15079;BMP180;6932;51.438;5.470;2022-12-10T13:17:32;100671.00;;;6.50
15079;BMP180;6932;51.438;5.470;2022-12-10T13:20:34;100662.00;;;6.50
15079;BMP180;6932;51.438;5.470;2022-12-10T13:23:05;100659.00;;;6.50
15079;BMP180;6932;51.438;5.470;2022-12-10T13:28:49;100656.00;;;6.50
15079;BMP180;6932;51.438;5.470;2022-12-10T13:37:03;100655.00;;;6.60
15079;BMP180;6932;51.438;5.470;2022-12-10T13:39:37;100661.00;;;6.60
15079;BMP180;6932;51.438;5.470;2022-12-10T13:45:23;100670.00;;;6.60
15079;BMP180;6932;51.438;5.470;2022-12-10T13:56:10;100672.00;;;6.60
15079;BMP180;6932;51.438;5.470;2022-12-10T13:59:10;100674.00;;;6.60
15079;BMP180;6932;51.438;5.470;2022-12-10T14:07:15;100672.00;;;7.10
15079;BMP180;6932;51.438;5.470;2022-12-10T14:10:01;100686.00;;;7.00
15079;BMP180;6932;51.438;5.470;2022-12-10T14:12:37;100674.00;;;6.90
15079;BMP180;6932;51.438;5.470;2022-12-10T14:15:19;100672.00;;;6.90
15079;BMP180;6932;51.438;5.470;2022-12-10T14:18:19;100689.00;;;6.80
15079;BMP180;6932;51.438;5.470;2022-12-10T14:20:52;100684.00;;;6.80
15079;BMP180;6932;51.438;5.470;2022-12-10T14:23:46;100674.00;;;6.80
15079;BMP180;6932;51.438;5.470;2022-12-10T14:26:26;100684.00;;;6.80
15079;BMP180;6932;51.438;5.470;2022-12-10T14:29:19;100684.00;;;6.80
15079;BMP180;6932;51.438;5.470;2022-12-10T14:31:48;100686.00;;;6.80
15079;BMP180;6932;51.438;5.470;2022-12-10T14:34:22;100681.00;;;6.80
15079;BMP180;6932;51.438;5.470;2022-12-10T14:36:53;100680.00;;;6.80
15079;BMP180;6932;51.438;5.470;2022-12-10T14:39:25;100681.00;;;6.80
15079;BMP180;6932;51.438;5.470;2022-12-10T14:41:56;100690.00;;;6.80
15079;BMP180;6932;51.438;5.470;2022-12-10T14:44:24;100684.00;;;6.80
15079;BMP180;6932;51.438;5.470;2022-12-10T14:46:50;100686.00;;;6.80
15079;BMP180;6932;51.438;5.470;2022-12-10T14:49:26;100693.00;;;6.80
15079;BMP180;6932;51.438;5.470;2022-12-10T14:51:52;100692.00;;;6.80
15079;BMP180;6932;51.438;5.470;2022-12-10T14:54:32;100700.00;;;6.80
15079;BMP180;6932;51.438;5.470;2022-12-10T14:57:05;100698.00;;;6.80
15079;BMP180;6932;51.438;5.470;2022-12-10T15:00:19;100705.00;;;6.80
15079;BMP180;6932;51.438;5.470;2022-12-10T15:03:07;100708.00;;;6.80
15079;BMP180;6932;51.438;5.470;2022-12-10T15:05:34;100712.00;;;6.80
15079;BMP180;6932;51.438;5.470;2022-12-10T15:08:13;100705.00;;;6.80
15079;BMP180;6932;51.438;5.470;2022-12-10T15:10:44;100706.00;;;6.80
15079;BMP180;6932;51.438;5.470;2022-12-10T15:13:44;100709.00;;;6.80
15079;BMP180;6932;51.438;5.470;2022-12-10T15:16:41;100692.00;;;6.80
15079;BMP180;6932;51.438;5.470;2022-12-10T15:22:02;100707.00;;;6.80
15079;BMP180;6932;51.438;5.470;2022-12-10T15:24:42;100695.00;;;6.80
15079;BMP180;6932;51.438;5.470;2022-12-10T15:27:21;100697.00;;;6.80
15079;BMP180;6932;51.438;5.470;2022-12-10T15:29:48;100696.00;;;6.80
15079;BMP180;6932;51.438;5.470;2022-12-10T15:34:59;100709.00;;;6.80
15079;BMP180;6932;51.438;5.470;2022-12-10T15:37:34;100713.00;;;6.80
15079;BMP180;6932;51.438;5.470;2022-12-10T15:40:05;100716.00;;;6.80
15079;BMP180;6932;51.438;5.470;2022-12-10T15:42:39;100712.00;;;6.80
15079;BMP180;6932;51.438;5.470;2022-12-10T15:45:22;100716.00;;;6.80
15079;BMP180;6932;51.438;5.470;2022-12-10T15:47:49;100730.00;;;6.80
15079;BMP180;6932;51.438;5.470;2022-12-10T15:50:15;100717.00;;;6.80
15079;BMP180;6932;51.438;5.470;2022-12-10T15:52:42;100721.00;;;6.80
15079;BMP180;6932;51.438;5.470;2022-12-10T15:55:08;100725.00;;;6.80
15079;BMP180;6932;51.438;5.470;2022-12-10T15:57:37;100719.00;;;6.80
15079;BMP180;6932;51.438;5.470;2022-12-10T16:00:18;100712.00;;;6.80
15079;BMP180;6932;51.438;5.470;2022-12-10T16:03:03;100720.00;;;6.80
15079;BMP180;6932;51.438;5.470;2022-12-10T16:05:36;100717.00;;;6.80
15079;BMP180;6932;51.438;5.470;2022-12-10T16:08:25;100722.00;;;6.80
15079;BMP180;6932;51.438;5.470;2022-12-10T16:10:56;100723.00;;;6.80
15079;BMP180;6932;51.438;5.470;2022-12-10T16:13:28;100717.00;;;6.80
15079;BMP180;6932;51.438;5.470;2022-12-10T16:16:00;100723.00;;;6.80
15079;BMP180;6932;51.438;5.470;2022-12-10T16:18:28;100720.00;;;6.80
15079;BMP180;6932;51.438;5.470;2022-12-10T16:20:54;100718.00;;;6.80
15079;BMP180;6932;51.438;5.470;2022-12-10T16:23:19;100716.00;;;6.80
15079;BMP180;6932;51.438;5.470;2022-12-10T16:25:46;100710.00;;;6.80
15079;BMP180;6932;51.438;5.470;2022-12-10T16:28:19;100718.00;;;6.80
15079;BMP180;6932;51.438;5.470;2022-12-10T16:30:47;100712.00;;;6.80